createdAt,value
2017-07-09T00:00:43.720Z,92.20
2017-07-09T00:03:12.534Z,92.10
2017-07-09T00:05:41.400Z,92.40
2017-07-09T00:08:09.893Z,92.60
2017-07-09T00:10:38.349Z,92.40
2017-07-09T00:13:06.914Z,92.90
2017-07-09T00:15:35.380Z,92.50
2017-07-09T00:18:03.877Z,92.50
2017-07-09T00:20:32.330Z,92.60
2017-07-09T00:23:00.775Z,93.30
2017-07-09T00:25:29.270Z,93.70
2017-07-09T00:27:58.479Z,94.00
2017-07-09T00:30:26.928Z,93.00
2017-07-09T00:32:55.410Z,93.00
2017-07-09T00:35:23.831Z,93.20
2017-07-09T00:37:52.265Z,93.70
2017-07-09T00:40:20.739Z,93.30
2017-07-09T00:42:49.238Z,93.30
2017-07-09T00:45:17.733Z,93.40
2017-07-09T00:47:46.181Z,93.70
2017-07-09T00:50:14.648Z,93.90
2017-07-09T00:52:43.145Z,93.60
2017-07-09T00:55:11.565Z,93.90
2017-07-09T00:57:40.057Z,93.90
2017-07-09T01:00:08.548Z,93.70
2017-07-09T01:02:36.984Z,94.40
2017-07-09T01:05:05.832Z,93.70
2017-07-09T01:07:35.501Z,94.20
2017-07-09T01:10:03.941Z,94.10
2017-07-09T01:12:32.359Z,94.20
2017-07-09T01:15:01.980Z,93.70
2017-07-09T01:17:31.174Z,94.30
2017-07-09T01:20:00.418Z,93.70
2017-07-09T01:22:28.859Z,93.20
2017-07-09T01:24:57.290Z,93.40
2017-07-09T01:27:25.788Z,93.60
2017-07-09T01:29:54.233Z,94.10
2017-07-09T01:32:23.461Z,94.70
2017-07-09T01:34:51.957Z,95.20
2017-07-09T01:37:20.412Z,95.00
2017-07-09T01:39:48.833Z,94.70
2017-07-09T01:42:17.338Z,94.30
2017-07-09T01:44:45.788Z,94.60
2017-07-09T01:47:14.983Z,94.80
2017-07-09T01:49:43.860Z,93.70
2017-07-09T01:52:12.310Z,93.00
2017-07-09T01:54:40.787Z,92.90
2017-07-09T01:57:09.311Z,93.50
2017-07-09T01:59:37.841Z,93.90
2017-07-09T02:02:05.941Z,94.80
2017-07-09T02:04:34.438Z,95.00
2017-07-09T02:07:02.897Z,95.40
2017-07-09T02:09:31.319Z,95.30
2017-07-09T02:11:59.805Z,95.70
2017-07-09T02:14:28.636Z,95.40
2017-07-09T02:16:57.904Z,95.60
2017-07-09T02:19:27.114Z,95.90
2017-07-09T02:21:55.568Z,94.70
2017-07-09T02:24:24.820Z,95.00
2017-07-09T02:26:53.255Z,94.80
2017-07-09T02:29:22.499Z,95.60
2017-07-09T02:31:50.949Z,94.80
2017-07-09T02:34:19.467Z,94.70
2017-07-09T02:36:47.900Z,94.80
2017-07-09T02:39:16.335Z,95.10
2017-07-09T02:41:44.799Z,95.50
2017-07-09T02:44:13.246Z,95.90
2017-07-09T02:46:41.749Z,96.40
2017-07-09T02:49:10.191Z,96.80
2017-07-09T02:51:38.637Z,96.70
2017-07-09T02:54:07.137Z,96.80
2017-07-09T02:56:35.650Z,96.90
2017-07-09T02:59:04.081Z,97.10
2017-07-09T03:01:33.135Z,97.30
2017-07-09T03:04:01.557Z,97.10
2017-07-09T03:06:29.361Z,97.10
2017-07-09T03:08:57.852Z,96.60
2017-07-09T03:11:27.045Z,96.70
2017-07-09T03:13:55.485Z,96.20
2017-07-09T03:16:23.960Z,96.00
2017-07-09T03:18:52.407Z,95.60
2017-07-09T03:21:20.834Z,94.30
2017-07-09T03:23:49.323Z,93.40
2017-07-09T03:26:17.771Z,92.60
2017-07-09T03:28:46.617Z,91.90
2017-07-09T03:31:15.117Z,91.40
2017-07-09T03:33:43.567Z,90.30
2017-07-09T03:36:12.819Z,90.70
2017-07-09T03:38:41.301Z,89.60
2017-07-09T03:41:09.729Z,88.50
2017-07-09T03:43:38.211Z,87.70
2017-07-09T03:46:07.470Z,88.30
2017-07-09T03:48:35.899Z,86.50
2017-07-09T03:51:04.349Z,86.00
2017-07-09T03:53:32.819Z,85.20
2017-07-09T03:56:01.248Z,85.10
2017-07-09T03:58:30.018Z,85.20
2017-07-09T04:00:59.580Z,84.10
2017-07-09T04:03:28.009Z,84.30
2017-07-09T04:05:56.444Z,85.10
2017-07-09T04:08:24.896Z,84.50
2017-07-09T04:10:53.365Z,85.00
2017-07-09T04:13:22.612Z,85.20
2017-07-09T04:15:51.048Z,84.80
2017-07-09T04:18:19.480Z,84.50
2017-07-09T04:20:47.281Z,85.30
2017-07-09T04:23:15.711Z,83.70
2017-07-09T04:25:44.148Z,83.40
2017-07-09T04:28:12.638Z,83.30
2017-07-09T04:30:41.068Z,83.80
2017-07-09T04:33:09.499Z,83.10
2017-07-09T04:35:37.985Z,83.40
2017-07-09T04:38:06.407Z,82.90
2017-07-09T04:40:34.839Z,83.10
2017-07-09T04:43:03.314Z,83.30
2017-07-09T04:45:31.792Z,83.60
2017-07-09T04:48:00.290Z,83.40
2017-07-09T04:50:28.744Z,83.90
2017-07-09T04:52:57.576Z,83.20
2017-07-09T04:55:26.044Z,83.80
2017-07-09T04:57:54.491Z,84.10
2017-07-09T05:00:22.928Z,84.90
2017-07-09T05:02:51.430Z,85.30
2017-07-09T05:05:20.625Z,84.80
2017-07-09T05:07:49.057Z,83.70
2017-07-09T05:10:17.530Z,84.20
2017-07-09T05:12:46.740Z,83.40
2017-07-09T05:15:16.149Z,82.70
2017-07-09T05:17:44.671Z,81.80
2017-07-09T05:20:13.113Z,81.00
2017-07-09T05:22:41.552Z,80.90
2017-07-09T05:25:10.013Z,80.90
2017-07-09T05:27:38.490Z,80.90
2017-07-09T05:30:06.934Z,80.90
2017-07-09T05:32:35.374Z,79.60
2017-07-09T05:35:04.252Z,80.60
2017-07-09T05:37:32.675Z,80.50
2017-07-09T05:40:01.105Z,78.00
2017-07-09T05:42:29.585Z,77.00
2017-07-09T05:44:58.076Z,76.30
2017-07-09T05:47:26.524Z,73.80
2017-07-09T05:49:54.979Z,75.50
2017-07-09T05:52:23.479Z,71.80
2017-07-09T05:54:51.908Z,72.00
2017-07-09T05:57:20.349Z,72.50
2017-07-09T05:59:48.831Z,73.80
2017-07-09T06:02:17.273Z,74.90
2017-07-09T06:04:45.756Z,78.10
2017-07-09T06:07:14.184Z,81.50
2017-07-09T06:09:42.608Z,82.00
2017-07-09T06:12:11.852Z,83.40
2017-07-09T06:14:40.290Z,84.70
2017-07-09T06:17:08.712Z,85.60
2017-07-09T06:19:37.209Z,86.40
2017-07-09T06:22:05.645Z,87.30
2017-07-09T06:24:34.072Z,85.90
2017-07-09T06:27:02.580Z,85.00
2017-07-09T06:29:32.450Z,86.50
2017-07-09T06:32:00.889Z,86.20
2017-07-09T06:34:29.365Z,87.00
2017-07-09T06:36:57.866Z,87.20
2017-07-09T06:39:26.312Z,86.80
2017-07-09T06:41:55.518Z,86.00
2017-07-09T06:44:23.999Z,84.40
2017-07-09T06:46:53.196Z,84.50
2017-07-09T06:49:22.407Z,85.40
2017-07-09T06:51:50.893Z,84.30
2017-07-09T06:54:19.333Z,85.30
2017-07-09T06:56:48.455Z,86.10
2017-07-09T06:59:16.924Z,86.40
2017-07-09T07:01:45.782Z,86.00
2017-07-09T07:04:14.251Z,84.90
2017-07-09T07:06:42.744Z,84.80
2017-07-09T07:09:11.181Z,83.50
2017-07-09T07:11:39.617Z,80.90
2017-07-09T07:14:08.117Z,82.00
2017-07-09T07:16:36.582Z,80.70
2017-07-09T07:19:05.008Z,80.80
2017-07-09T07:21:33.456Z,79.40
2017-07-09T07:24:01.932Z,76.10
2017-07-09T07:26:30.432Z,74.40
2017-07-09T07:28:58.915Z,71.90
2017-07-09T07:31:27.395Z,69.70
2017-07-09T07:33:55.829Z,68.00
2017-07-09T07:36:24.318Z,65.40
2017-07-09T07:38:52.761Z,64.40
2017-07-09T07:41:21.200Z,59.00
2017-07-09T07:43:49.672Z,51.30
2017-07-09T07:46:18.502Z,47.80
2017-07-09T07:48:46.932Z,45.80
2017-07-09T07:51:15.417Z,43.70
2017-07-09T07:53:43.849Z,40.80
2017-07-09T07:56:13.083Z,40.10
2017-07-09T07:58:41.557Z,37.40
2017-07-09T08:01:10.018Z,34.40
2017-07-09T08:03:38.513Z,34.20
2017-07-09T08:06:06.944Z,32.50
2017-07-09T08:08:35.465Z,33.50
2017-07-09T08:11:03.906Z,33.10
2017-07-09T08:13:32.358Z,32.90
2017-07-09T08:16:00.854Z,34.20
2017-07-09T08:18:29.286Z,33.30
2017-07-09T08:20:57.729Z,33.10
2017-07-09T08:23:25.541Z,31.20
2017-07-09T08:25:53.986Z,33.60
2017-07-09T08:28:22.855Z,30.20
2017-07-09T08:30:51.332Z,29.20
2017-07-09T08:33:19.825Z,30.70
2017-07-09T08:35:48.258Z,26.50
2017-07-09T08:38:17.258Z,26.80
2017-07-09T08:40:45.758Z,26.90
2017-07-09T08:43:14.242Z,25.30
2017-07-09T08:45:42.676Z,24.90
2017-07-09T08:48:11.178Z,25.50
2017-07-09T08:50:39.669Z,28.40
2017-07-09T08:53:08.125Z,30.40
2017-07-09T08:55:36.644Z,29.70
2017-07-09T08:58:05.087Z,29.00
2017-07-09T09:00:33.510Z,29.70
2017-07-09T09:03:02.003Z,33.10
2017-07-09T09:05:30.478Z,29.50
2017-07-09T09:07:58.914Z,26.80
2017-07-09T09:10:27.381Z,25.10
2017-07-09T09:12:56.213Z,23.70
2017-07-09T09:15:24.697Z,25.20
2017-07-09T09:17:53.191Z,26.60
2017-07-09T09:20:21.666Z,30.20
2017-07-09T09:22:50.109Z,32.60
2017-07-09T09:25:18.601Z,32.60
2017-07-09T09:27:47.046Z,32.40
2017-07-09T09:30:16.251Z,30.90
2017-07-09T09:32:44.832Z,32.70
2017-07-09T09:35:14.040Z,36.80
2017-07-09T09:37:42.478Z,37.10
2017-07-09T09:40:10.980Z,37.30
2017-07-09T09:42:40.213Z,37.50
2017-07-09T09:45:09.099Z,37.20
2017-07-09T09:47:37.524Z,36.70
2017-07-09T09:50:06.007Z,36.00
2017-07-09T09:52:34.922Z,37.20
2017-07-09T09:55:04.128Z,37.50
2017-07-09T09:57:33.326Z,38.40
2017-07-09T10:00:01.768Z,38.30
2017-07-09T10:02:30.190Z,39.50
2017-07-09T10:04:57.985Z,38.80
2017-07-09T10:07:26.442Z,42.80
2017-07-09T10:09:55.688Z,38.30
2017-07-09T10:12:24.162Z,34.00
2017-07-09T10:14:52.582Z,32.10
2017-07-09T10:17:21.020Z,31.90
2017-07-09T10:19:49.903Z,32.80
2017-07-09T10:22:18.733Z,34.40
2017-07-09T10:24:47.167Z,33.60
2017-07-09T10:27:16.050Z,35.60
2017-07-09T10:29:44.485Z,35.00
2017-07-09T10:32:12.931Z,35.80
2017-07-09T10:34:41.413Z,36.10
2017-07-09T10:37:09.886Z,35.60
2017-07-09T10:39:38.374Z,37.40
2017-07-09T10:42:06.812Z,39.60
2017-07-09T10:44:35.743Z,39.20
2017-07-09T10:47:04.178Z,36.60
2017-07-09T10:49:33.374Z,36.10
2017-07-09T10:52:01.850Z,36.70
2017-07-09T10:54:29.936Z,35.60
2017-07-09T10:56:58.099Z,28.70
2017-07-09T10:59:26.576Z,27.00
2017-07-09T11:01:55.820Z,28.20
2017-07-09T11:04:24.259Z,23.70
2017-07-09T11:06:53.486Z,24.40
2017-07-09T11:09:21.989Z,23.00
2017-07-09T11:11:50.431Z,21.60
2017-07-09T11:14:19.324Z,20.40
2017-07-09T11:16:47.850Z,19.70
2017-07-09T11:19:16.279Z,18.70
2017-07-09T11:21:44.717Z,19.80
2017-07-09T11:24:13.213Z,20.90
2017-07-09T11:26:42.045Z,23.50
2017-07-09T11:29:10.476Z,23.90
2017-07-09T11:31:38.956Z,22.90
2017-07-09T11:34:07.423Z,20.90
2017-07-09T11:36:35.880Z,20.00
2017-07-09T11:39:03.487Z,20.20
2017-07-09T11:41:31.970Z,20.40
2017-07-09T11:44:14.276Z,21.10
2017-07-09T11:46:43.668Z,23.00
2017-07-09T11:52:11.836Z,22.80
2017-07-09T11:54:41.764Z,25.20
2017-07-09T11:57:10.989Z,27.30
2017-07-09T11:59:39.431Z,27.20
2017-07-09T12:02:07.947Z,27.80
2017-07-09T12:04:36.366Z,27.80
2017-07-09T12:07:05.565Z,25.70
2017-07-09T12:09:34.865Z,25.80
2017-07-09T12:12:03.296Z,25.30
2017-07-09T12:14:31.737Z,27.40
2017-07-09T12:17:00.626Z,26.10
2017-07-09T12:19:29.075Z,26.20
2017-07-09T12:21:57.895Z,25.70
2017-07-09T12:24:26.364Z,25.90
2017-07-09T12:26:54.799Z,25.10
2017-07-09T12:29:24.252Z,25.60
2017-07-09T12:31:52.698Z,27.00
2017-07-09T12:34:21.141Z,26.10
2017-07-09T12:36:50.201Z,27.20
2017-07-09T12:39:19.404Z,28.60
2017-07-09T12:41:47.837Z,28.70
2017-07-09T12:44:16.551Z,26.80
2017-07-09T12:46:45.799Z,30.10
2017-07-09T12:49:14.250Z,27.90
2017-07-09T12:51:43.454Z,24.00
2017-07-09T12:54:11.935Z,23.70
2017-07-09T12:56:40.364Z,26.20
2017-07-09T12:59:08.922Z,26.20
2017-07-09T13:01:37.474Z,27.80
2017-07-09T13:04:05.907Z,31.90
2017-07-09T13:06:34.360Z,32.60
2017-07-09T13:09:02.835Z,32.80
2017-07-09T13:11:31.265Z,33.60
2017-07-09T13:13:59.738Z,33.20
2017-07-09T13:16:28.173Z,33.80
2017-07-09T13:18:56.608Z,35.70
2017-07-09T13:21:25.157Z,35.80
2017-07-09T13:23:53.583Z,36.90
2017-07-09T13:26:22.043Z,35.80
2017-07-09T13:28:50.520Z,35.90
2017-07-09T13:31:18.978Z,36.20
2017-07-09T13:33:47.458Z,37.30
2017-07-09T13:36:15.572Z,37.10
2017-07-09T13:38:44.016Z,38.90
2017-07-09T13:41:12.491Z,39.30
2017-07-09T13:43:40.924Z,40.10
2017-07-09T13:46:10.182Z,42.00
2017-07-09T13:48:38.613Z,42.10
2017-07-09T13:51:07.031Z,43.80
2017-07-09T13:53:35.925Z,44.50
2017-07-09T13:56:04.364Z,45.60
2017-07-09T13:58:33.560Z,48.70
2017-07-09T14:01:02.058Z,49.80
2017-07-09T14:03:30.894Z,50.70
2017-07-09T14:05:58.768Z,51.80
2017-07-09T14:08:27.241Z,52.20
2017-07-09T14:10:55.724Z,51.10
2017-07-09T14:13:24.170Z,50.30
2017-07-09T14:15:52.608Z,50.80
2017-07-09T14:18:21.060Z,50.80
2017-07-09T14:20:49.148Z,52.20
2017-07-09T14:23:17.621Z,51.80
2017-07-09T14:25:46.061Z,52.10
2017-07-09T14:28:14.560Z,52.10
2017-07-09T14:30:44.059Z,53.40
2017-07-09T14:33:12.498Z,54.90
2017-07-09T14:35:41.412Z,54.00
2017-07-09T14:38:09.924Z,54.50
2017-07-09T14:40:38.379Z,54.50
2017-07-09T14:43:06.821Z,53.40
2017-07-09T14:45:35.688Z,54.10
2017-07-09T14:48:04.899Z,55.60
2017-07-09T14:50:33.372Z,53.90
2017-07-09T14:53:01.819Z,54.00
2017-07-09T14:55:30.714Z,56.20
2017-07-09T14:57:59.188Z,55.20
2017-07-09T15:00:27.668Z,56.30
2017-07-09T15:02:55.489Z,57.10
2017-07-09T15:05:23.912Z,58.10
2017-07-09T15:07:52.385Z,58.30
2017-07-09T15:10:20.858Z,58.40
2017-07-09T15:12:49.311Z,58.20
2017-07-09T15:15:17.776Z,59.10
2017-07-09T15:17:46.606Z,60.70
2017-07-09T15:20:15.084Z,60.90
2017-07-09T15:22:43.533Z,62.40
2017-07-09T15:25:12.791Z,64.50
2017-07-09T15:27:41.223Z,64.80
2017-07-09T15:30:09.662Z,65.10
2017-07-09T15:32:38.153Z,64.80
2017-07-09T15:35:06.597Z,64.30
2017-07-09T15:37:35.038Z,64.30
2017-07-09T15:40:04.568Z,59.20
2017-07-09T15:42:32.995Z,58.40
2017-07-09T15:45:01.448Z,58.20
2017-07-09T15:47:30.327Z,58.20
2017-07-09T15:49:59.151Z,59.40
2017-07-09T15:52:28.043Z,58.70
2017-07-09T15:54:56.532Z,60.40
2017-07-09T15:57:24.980Z,60.10
2017-07-09T15:59:53.462Z,55.80
2017-07-09T16:02:22.660Z,58.50
2017-07-09T16:04:51.165Z,54.40
2017-07-09T16:07:19.592Z,55.00
2017-07-09T16:09:48.048Z,53.80
2017-07-09T16:12:16.527Z,54.80
2017-07-09T16:14:45.779Z,54.90
2017-07-09T16:17:14.217Z,54.80
2017-07-09T16:19:42.638Z,54.20
2017-07-09T16:22:11.142Z,54.70
2017-07-09T16:24:39.628Z,55.40
2017-07-09T16:27:08.186Z,55.20
2017-07-09T16:29:37.416Z,55.50
2017-07-09T16:32:06.663Z,54.40
2017-07-09T16:34:35.175Z,54.40
2017-07-09T16:37:03.622Z,56.40
2017-07-09T16:39:32.049Z,57.30
2017-07-09T16:42:00.572Z,58.00
2017-07-09T16:44:28.997Z,59.10
2017-07-09T16:46:57.529Z,59.10
2017-07-09T16:49:26.000Z,60.90
2017-07-09T16:51:54.478Z,61.80
2017-07-09T16:54:22.910Z,63.00
2017-07-09T16:56:52.941Z,62.90
2017-07-09T16:59:21.408Z,66.70
2017-07-09T17:01:49.888Z,69.40
2017-07-09T17:04:18.314Z,70.30
2017-07-09T17:06:46.082Z,72.20
2017-07-09T17:09:14.564Z,73.30
2017-07-09T17:11:42.996Z,73.30
2017-07-09T17:14:11.421Z,72.00
2017-07-09T17:16:39.882Z,71.90
2017-07-09T17:19:08.330Z,71.00
2017-07-09T17:21:36.791Z,69.50
2017-07-09T17:24:05.221Z,68.10
2017-07-09T17:26:33.695Z,67.40
2017-07-09T17:29:02.885Z,64.30
2017-07-09T17:31:32.105Z,64.00
2017-07-09T17:34:00.962Z,64.30
2017-07-09T17:36:29.784Z,64.20
2017-07-09T17:38:58.204Z,64.80
2017-07-09T17:41:26.661Z,64.40
2017-07-09T17:43:56.792Z,64.90
2017-07-09T17:46:25.282Z,63.90
2017-07-09T17:48:53.729Z,63.10
2017-07-09T17:51:22.158Z,63.50
2017-07-09T17:53:50.631Z,63.90
2017-07-09T17:56:19.116Z,62.70
2017-07-09T17:58:47.939Z,60.30
2017-07-09T18:01:17.154Z,61.00
2017-07-09T18:03:45.993Z,62.70
2017-07-09T18:06:14.857Z,63.80
2017-07-09T18:08:43.739Z,63.00
2017-07-09T18:11:12.174Z,64.50
2017-07-09T18:13:41.371Z,67.30
2017-07-09T18:16:10.246Z,67.60
2017-07-09T18:18:39.111Z,67.60
2017-07-09T18:21:08.003Z,68.30
2017-07-09T18:23:36.823Z,69.10
2017-07-09T18:26:05.639Z,70.00
2017-07-09T18:28:34.514Z,70.50
2017-07-09T18:31:03.934Z,70.30
2017-07-09T18:33:32.432Z,70.10
2017-07-09T18:36:01.286Z,69.60
2017-07-09T18:38:29.717Z,70.70
2017-07-09T18:40:58.164Z,72.10
2017-07-09T18:43:27.409Z,72.40
2017-07-09T18:45:55.845Z,72.50
2017-07-09T18:48:24.275Z,73.00
2017-07-09T18:50:53.186Z,73.40
2017-07-09T18:53:22.397Z,73.40
2017-07-09T18:55:50.878Z,75.20
2017-07-09T18:58:19.332Z,75.80
2017-07-09T19:00:47.819Z,76.80
2017-07-09T19:03:16.256Z,77.20
2017-07-09T19:05:44.693Z,77.50
2017-07-09T19:08:13.284Z,78.00
2017-07-09T19:10:41.731Z,79.50
2017-07-09T19:13:10.183Z,78.40
2017-07-09T19:15:38.677Z,77.80
2017-07-09T19:18:07.144Z,77.60
2017-07-09T19:20:35.582Z,78.20
2017-07-09T19:23:05.181Z,78.40
2017-07-09T19:25:33.973Z,77.70
2017-07-09T19:28:03.222Z,77.40
2017-07-09T19:30:32.117Z,77.60
2017-07-09T19:33:00.633Z,77.90
2017-07-09T19:35:29.141Z,77.70
2017-07-09T19:37:57.586Z,77.60
2017-07-09T19:40:26.025Z,77.70
2017-07-09T19:42:55.736Z,77.50
2017-07-09T19:45:25.192Z,77.70
2017-07-09T19:47:54.434Z,77.70
2017-07-09T19:50:22.948Z,78.00
2017-07-09T19:52:51.376Z,77.90
2017-07-09T19:55:20.600Z,78.80
2017-07-09T19:57:49.112Z,78.60
2017-07-09T20:00:17.558Z,79.10
2017-07-09T20:02:46.497Z,79.60
2017-07-09T20:05:15.026Z,79.20
2017-07-09T20:07:43.506Z,78.60
2017-07-09T20:10:11.943Z,79.10
2017-07-09T20:12:40.443Z,78.50
2017-07-09T20:15:08.899Z,78.40
2017-07-09T20:17:37.369Z,78.50
2017-07-09T20:20:05.858Z,78.90
2017-07-09T20:22:33.531Z,79.30
2017-07-09T20:25:01.971Z,79.60
2017-07-09T20:27:30.417Z,81.40
2017-07-09T20:29:59.292Z,81.90
2017-07-09T20:32:27.721Z,83.40
2017-07-09T20:34:57.342Z,85.20
2017-07-09T20:37:25.790Z,86.80
2017-07-09T20:39:54.616Z,88.70
2017-07-09T20:42:23.093Z,89.10
2017-07-09T20:44:51.592Z,91.50
2017-07-09T20:47:20.029Z,93.70
2017-07-09T20:49:48.464Z,95.60
2017-07-09T20:52:16.937Z,93.30
2017-07-09T20:54:45.428Z,93.90
2017-07-09T20:57:14.255Z,94.50
2017-07-09T20:59:43.840Z,94.20
2017-07-09T21:02:12.454Z,94.90
2017-07-09T21:04:40.896Z,94.50
2017-07-09T21:07:09.755Z,96.90
2017-07-09T21:09:38.239Z,97.00
2017-07-09T21:12:07.131Z,99.00
2017-07-09T21:14:36.228Z,99.00
2017-07-09T21:17:05.086Z,99.90
2017-07-09T21:19:33.943Z,99.50
2017-07-09T21:22:02.762Z,98.70
2017-07-09T21:24:31.652Z,99.40
2017-07-09T21:27:00.473Z,99.80
2017-07-09T21:29:29.294Z,99.90
2017-07-09T21:31:58.175Z,99.90
2017-07-09T21:34:27.020Z,99.90
2017-07-09T21:36:55.885Z,99.90
2017-07-09T21:39:24.702Z,99.90
2017-07-09T21:41:53.537Z,99.90
2017-07-09T21:44:21.755Z,99.90
2017-07-09T21:46:50.956Z,99.90
2017-07-09T21:49:19.805Z,99.90
2017-07-09T21:51:48.704Z,99.90
2017-07-09T21:54:17.889Z,99.90
2017-07-09T21:56:46.462Z,99.90
2017-07-09T21:59:15.366Z,99.90
2017-07-09T22:01:44.195Z,99.90
2017-07-09T22:04:13.094Z,99.90
2017-07-09T22:06:41.960Z,99.90
2017-07-09T22:09:10.794Z,99.90
2017-07-09T22:11:39.694Z,99.90
2017-07-09T22:14:08.513Z,99.90
2017-07-09T22:16:37.357Z,99.90
2017-07-09T22:19:06.317Z,99.90
2017-07-09T22:21:35.159Z,99.90
2017-07-09T22:24:03.994Z,99.90
2017-07-09T22:26:32.574Z,99.90
2017-07-09T22:29:01.397Z,99.90
2017-07-09T22:31:30.217Z,99.90
2017-07-09T22:33:59.501Z,99.90
2017-07-09T22:36:27.948Z,99.90
2017-07-09T22:38:57.032Z,99.90
2017-07-09T22:41:25.895Z,99.90
2017-07-09T22:43:54.709Z,99.90
2017-07-09T22:46:23.197Z,99.90
2017-07-09T22:48:52.919Z,99.90
2017-07-09T22:51:21.353Z,99.90
2017-07-09T22:53:49.793Z,99.90
2017-07-09T22:56:18.652Z,99.90
2017-07-09T22:58:47.484Z,99.90
2017-07-09T23:01:16.170Z,99.90
2017-07-09T23:03:45.365Z,99.90
2017-07-09T23:06:14.192Z,99.90
2017-07-09T23:08:43.020Z,99.90
2017-07-09T23:11:11.691Z,99.90
2017-07-09T23:13:40.562Z,99.90
2017-07-09T23:16:09.574Z,99.90
2017-07-09T23:18:38.044Z,99.90
2017-07-09T23:21:06.915Z,99.90
2017-07-09T23:23:35.749Z,99.90
2017-07-09T23:26:04.973Z,99.90
2017-07-09T23:28:33.825Z,99.90
2017-07-09T23:31:02.642Z,99.90
2017-07-09T23:33:31.882Z,99.90
2017-07-09T23:36:00.344Z,99.90
2017-07-09T23:38:29.156Z,99.90
2017-07-09T23:40:58.033Z,99.90
2017-07-09T23:43:26.929Z,99.90
2017-07-09T23:45:56.111Z,99.90
2017-07-09T23:48:24.540Z,99.90
2017-07-09T23:50:53.411Z,99.90
2017-07-09T23:53:22.235Z,99.90
2017-07-09T23:55:51.065Z,99.90
2017-07-09T23:58:19.935Z,99.90
